sensor_id;sensor_type;location;lat;lon;timestamp;P1;durP1;ratioP1;P2;durP2;ratioP2
18021;SDS011;9136;48.822;7.966;2023-06-10T00:00:31;16.38;;;15.60;;
18021;SDS011;9136;48.822;7.966;2023-06-10T00:03:20;17.30;;;16.38;;
18021;SDS011;9136;48.822;7.966;2023-06-10T00:06:09;17.10;;;16.20;;
18021;SDS011;9136;48.822;7.966;2023-06-10T00:08:57;15.50;;;14.73;;
18021;SDS011;9136;48.822;7.966;2023-06-10T00:11:45;15.75;;;15.05;;
18021;SDS011;9136;48.822;7.966;2023-06-10T00:14:35;15.63;;;14.85;;
18021;SDS011;9136;48.822;7.966;2023-06-10T00:17:24;16.77;;;15.98;;
18021;SDS011;9136;48.822;7.966;2023-06-10T00:20:14;15.50;;;14.80;;
18021;SDS011;9136;48.822;7.966;2023-06-10T00:23:02;16.45;;;15.68;;
18021;SDS011;9136;48.822;7.966;2023-06-10T00:25:52;17.40;;;16.50;;
18021;SDS011;9136;48.822;7.966;2023-06-10T00:28:40;16.77;;;15.98;;
18021;SDS011;9136;48.822;7.966;2023-06-10T00:31:29;15.85;;;15.02;;
18021;SDS011;9136;48.822;7.966;2023-06-10T00:34:17;16.60;;;15.80;;
18021;SDS011;9136;48.822;7.966;2023-06-10T00:37:05;16.27;;;15.48;;
18021;SDS011;9136;48.822;7.966;2023-06-10T00:39:53;17.00;;;16.17;;
18021;SDS011;9136;48.822;7.966;2023-06-10T00:42:42;36.72;;;16.63;;
18021;SDS011;9136;48.822;7.966;2023-06-10T00:45:30;16.77;;;15.90;;
18021;SDS011;9136;48.822;7.966;2023-06-10T00:48:20;16.38;;;15.57;;
18021;SDS011;9136;48.822;7.966;2023-06-10T00:51:07;16.83;;;15.93;;
18021;SDS011;9136;48.822;7.966;2023-06-10T00:53:56;17.38;;;16.42;;
18021;SDS011;9136;48.822;7.966;2023-06-10T00:56:44;16.15;;;15.35;;
18021;SDS011;9136;48.822;7.966;2023-06-10T00:59:33;16.80;;;15.93;;
18021;SDS011;9136;48.822;7.966;2023-06-10T01:02:24;16.40;;;15.60;;
18021;SDS011;9136;48.822;7.966;2023-06-10T01:05:13;15.85;;;14.98;;
18021;SDS011;9136;48.822;7.966;2023-06-10T01:08:03;16.35;;;15.55;;
18021;SDS011;9136;48.822;7.966;2023-06-10T01:10:57;15.00;;;14.30;;
18021;SDS011;9136;48.822;7.966;2023-06-10T01:13:48;16.13;;;15.27;;
18021;SDS011;9136;48.822;7.966;2023-06-10T01:16:38;17.00;;;16.20;;
18021;SDS011;9136;48.822;7.966;2023-06-10T01:19:26;16.98;;;16.08;;
18021;SDS011;9136;48.822;7.966;2023-06-10T01:22:17;17.00;;;16.05;;
18021;SDS011;9136;48.822;7.966;2023-06-10T01:25:06;16.48;;;15.60;;
18021;SDS011;9136;48.822;7.966;2023-06-10T01:27:56;17.15;;;16.15;;
18021;SDS011;9136;48.822;7.966;2023-06-10T01:30:59;15.73;;;15.02;;
18021;SDS011;9136;48.822;7.966;2023-06-10T01:33:55;18.67;;;17.75;;
18021;SDS011;9136;48.822;7.966;2023-06-10T01:36:45;17.10;;;16.27;;
18021;SDS011;9136;48.822;7.966;2023-06-10T01:39:36;17.23;;;16.43;;
18021;SDS011;9136;48.822;7.966;2023-06-10T01:42:26;16.33;;;15.43;;
18021;SDS011;9136;48.822;7.966;2023-06-10T01:45:15;15.80;;;15.10;;
18021;SDS011;9136;48.822;7.966;2023-06-10T01:48:03;17.88;;;16.88;;
18021;SDS011;9136;48.822;7.966;2023-06-10T01:50:51;16.15;;;15.38;;
18021;SDS011;9136;48.822;7.966;2023-06-10T01:53:40;16.15;;;15.38;;
18021;SDS011;9136;48.822;7.966;2023-06-10T01:56:30;16.85;;;16.05;;
18021;SDS011;9136;48.822;7.966;2023-06-10T01:59:17;16.88;;;15.80;;
18021;SDS011;9136;48.822;7.966;2023-06-10T02:02:06;17.53;;;16.73;;
18021;SDS011;9136;48.822;7.966;2023-06-10T02:04:53;16.13;;;15.35;;
18021;SDS011;9136;48.822;7.966;2023-06-10T02:07:41;16.10;;;15.10;;
18021;SDS011;9136;48.822;7.966;2023-06-10T02:10:29;15.93;;;15.13;;
18021;SDS011;9136;48.822;7.966;2023-06-10T02:13:18;18.20;;;17.23;;
18021;SDS011;9136;48.822;7.966;2023-06-10T02:16:06;18.07;;;17.17;;
18021;SDS011;9136;48.822;7.966;2023-06-10T02:18:55;17.00;;;16.20;;
18021;SDS011;9136;48.822;7.966;2023-06-10T02:21:43;17.27;;;16.30;;
18021;SDS011;9136;48.822;7.966;2023-06-10T02:24:31;17.17;;;16.27;;
18021;SDS011;9136;48.822;7.966;2023-06-10T02:27:19;16.47;;;15.47;;
18021;SDS011;9136;48.822;7.966;2023-06-10T02:30:09;18.40;;;17.30;;
18021;SDS011;9136;48.822;7.966;2023-06-10T02:32:58;16.33;;;15.40;;
18021;SDS011;9136;48.822;7.966;2023-06-10T02:35:47;17.23;;;16.43;;
18021;SDS011;9136;48.822;7.966;2023-06-10T02:38:34;17.13;;;16.23;;
18021;SDS011;9136;48.822;7.966;2023-06-10T02:41:22;19.20;;;17.63;;
18021;SDS011;9136;48.822;7.966;2023-06-10T02:44:11;18.60;;;17.53;;
18021;SDS011;9136;48.822;7.966;2023-06-10T02:47:00;17.20;;;16.30;;
18021;SDS011;9136;48.822;7.966;2023-06-10T02:49:48;16.27;;;15.47;;
18021;SDS011;9136;48.822;7.966;2023-06-10T02:52:36;17.27;;;16.33;;
18021;SDS011;9136;48.822;7.966;2023-06-10T02:55:24;17.23;;;15.83;;
18021;SDS011;9136;48.822;7.966;2023-06-10T02:58:12;16.53;;;15.67;;
18021;SDS011;9136;48.822;7.966;2023-06-10T03:01:00;17.00;;;16.10;;
18021;SDS011;9136;48.822;7.966;2023-06-10T03:03:49;16.87;;;16.07;;
18021;SDS011;9136;48.822;7.966;2023-06-10T03:06:37;17.70;;;16.77;;
18021;SDS011;9136;48.822;7.966;2023-06-10T03:09:26;17.63;;;16.60;;
18021;SDS011;9136;48.822;7.966;2023-06-10T03:12:14;16.40;;;15.70;;
18021;SDS011;9136;48.822;7.966;2023-06-10T03:15:02;17.23;;;16.43;;
18021;SDS011;9136;48.822;7.966;2023-06-10T03:17:51;16.93;;;16.13;;
18021;SDS011;9136;48.822;7.966;2023-06-10T03:20:40;17.23;;;16.23;;
18021;SDS011;9136;48.822;7.966;2023-06-10T03:23:30;17.03;;;16.10;;
18021;SDS011;9136;48.822;7.966;2023-06-10T03:26:18;16.63;;;15.63;;
18021;SDS011;9136;48.822;7.966;2023-06-10T03:29:07;15.67;;;14.80;;
18021;SDS011;9136;48.822;7.966;2023-06-10T03:31:56;17.60;;;16.60;;
18021;SDS011;9136;48.822;7.966;2023-06-10T03:34:44;16.17;;;15.47;;
18021;SDS011;9136;48.822;7.966;2023-06-10T03:37:35;17.10;;;16.27;;
18021;SDS011;9136;48.822;7.966;2023-06-10T03:40:23;18.93;;;17.60;;
18021;SDS011;9136;48.822;7.966;2023-06-10T03:43:10;17.10;;;16.30;;
18021;SDS011;9136;48.822;7.966;2023-06-10T03:45:58;18.10;;;17.20;;
18021;SDS011;9136;48.822;7.966;2023-06-10T03:48:46;17.03;;;16.13;;
18021;SDS011;9136;48.822;7.966;2023-06-10T03:51:35;16.47;;;15.77;;
18021;SDS011;9136;48.822;7.966;2023-06-10T03:54:24;16.73;;;15.93;;
18021;SDS011;9136;48.822;7.966;2023-06-10T03:57:12;15.87;;;14.97;;
18021;SDS011;9136;48.822;7.966;2023-06-10T04:00:00;16.93;;;16.10;;
18021;SDS011;9136;48.822;7.966;2023-06-10T04:02:52;17.63;;;16.63;;
18021;SDS011;9136;48.822;7.966;2023-06-10T04:05:41;16.43;;;15.63;;
18021;SDS011;9136;48.822;7.966;2023-06-10T04:08:29;17.37;;;16.37;;
18021;SDS011;9136;48.822;7.966;2023-06-10T04:11:18;18.50;;;17.50;;
18021;SDS011;9136;48.822;7.966;2023-06-10T04:14:06;16.67;;;15.87;;
18021;SDS011;9136;48.822;7.966;2023-06-10T04:16:54;18.60;;;17.70;;
18021;SDS011;9136;48.822;7.966;2023-06-10T04:19:42;19.10;;;17.60;;
18021;SDS011;9136;48.822;7.966;2023-06-10T04:22:30;17.90;;;17.00;;
18021;SDS011;9136;48.822;7.966;2023-06-10T04:25:18;16.30;;;15.50;;
18021;SDS011;9136;48.822;7.966;2023-06-10T04:28:07;17.30;;;16.40;;
18021;SDS011;9136;48.822;7.966;2023-06-10T04:30:55;16.57;;;15.70;;
18021;SDS011;9136;48.822;7.966;2023-06-10T04:33:43;17.83;;;16.67;;
18021;SDS011;9136;48.822;7.966;2023-06-10T04:36:31;16.77;;;15.87;;
18021;SDS011;9136;48.822;7.966;2023-06-10T04:39:19;16.97;;;16.17;;
18021;SDS011;9136;48.822;7.966;2023-06-10T04:42:07;15.73;;;14.93;;
18021;SDS011;9136;48.822;7.966;2023-06-10T04:44:56;16.23;;;15.43;;
18021;SDS011;9136;48.822;7.966;2023-06-10T04:47:44;17.00;;;16.10;;
18021;SDS011;9136;48.822;7.966;2023-06-10T04:50:32;16.27;;;15.37;;
18021;SDS011;9136;48.822;7.966;2023-06-10T04:53:20;15.07;;;14.37;;
18021;SDS011;9136;48.822;7.966;2023-06-10T04:56:08;18.17;;;17.27;;
18021;SDS011;9136;48.822;7.966;2023-06-10T04:58:55;16.83;;;15.93;;
18021;SDS011;9136;48.822;7.966;2023-06-10T05:01:45;16.75;;;15.85;;
18021;SDS011;9136;48.822;7.966;2023-06-10T05:04:32;17.23;;;16.33;;
18021;SDS011;9136;48.822;7.966;2023-06-10T05:07:20;16.27;;;15.50;;
18021;SDS011;9136;48.822;7.966;2023-06-10T05:10:08;15.73;;;14.93;;
18021;SDS011;9136;48.822;7.966;2023-06-10T05:12:58;15.80;;;15.10;;
18021;SDS011;9136;48.822;7.966;2023-06-10T05:15:45;16.88;;;15.63;;
18021;SDS011;9136;48.822;7.966;2023-06-10T05:18:35;15.80;;;15.10;;
18021;SDS011;9136;48.822;7.966;2023-06-10T05:21:23;17.55;;;16.65;;
18021;SDS011;9136;48.822;7.966;2023-06-10T05:24:11;16.42;;;15.63;;
18021;SDS011;9136;48.822;7.966;2023-06-10T05:26:59;16.95;;;16.05;;
18021;SDS011;9136;48.822;7.966;2023-06-10T05:29:47;15.70;;;15.00;;
18021;SDS011;9136;48.822;7.966;2023-06-10T05:32:35;15.98;;;15.27;;
18021;SDS011;9136;48.822;7.966;2023-06-10T05:35:25;17.77;;;16.77;;
18021;SDS011;9136;48.822;7.966;2023-06-10T05:38:13;16.55;;;15.75;;
18021;SDS011;9136;48.822;7.966;2023-06-10T05:41:01;17.20;;;16.40;;
18021;SDS011;9136;48.822;7.966;2023-06-10T05:43:49;16.20;;;15.40;;
18021;SDS011;9136;48.822;7.966;2023-06-10T05:46:37;15.68;;;14.70;;
18021;SDS011;9136;48.822;7.966;2023-06-10T05:49:25;17.33;;;16.38;;
18021;SDS011;9136;48.822;7.966;2023-06-10T05:52:14;15.95;;;15.15;;
18021;SDS011;9136;48.822;7.966;2023-06-10T05:55:02;15.88;;;14.63;;
18021;SDS011;9136;48.822;7.966;2023-06-10T05:57:58;15.75;;;14.95;;
18021;SDS011;9136;48.822;7.966;2023-06-10T06:00:46;15.95;;;15.05;;
18021;SDS011;9136;48.822;7.966;2023-06-10T06:03:34;15.25;;;14.55;;
18021;SDS011;9136;48.822;7.966;2023-06-10T06:06:22;16.00;;;15.23;;
18021;SDS011;9136;48.822;7.966;2023-06-10T06:09:12;16.08;;;15.27;;
18021;SDS011;9136;48.822;7.966;2023-06-10T06:11:59;15.60;;;14.70;;
18021;SDS011;9136;48.822;7.966;2023-06-10T06:14:47;16.33;;;15.52;;
18021;SDS011;9136;48.822;7.966;2023-06-10T06:17:38;15.98;;;15.18;;
18021;SDS011;9136;48.822;7.966;2023-06-10T06:20:26;17.25;;;16.45;;
18021;SDS011;9136;48.822;7.966;2023-06-10T06:23:14;17.13;;;16.23;;
18021;SDS011;9136;48.822;7.966;2023-06-10T06:26:03;16.60;;;15.85;;
18021;SDS011;9136;48.822;7.966;2023-06-10T06:28:50;18.40;;;17.17;;
18021;SDS011;9136;48.822;7.966;2023-06-10T06:31:38;17.17;;;16.33;;
18021;SDS011;9136;48.822;7.966;2023-06-10T06:34:26;14.57;;;13.98;;
18021;SDS011;9136;48.822;7.966;2023-06-10T06:37:14;16.65;;;15.75;;
18021;SDS011;9136;48.822;7.966;2023-06-10T06:40:01;15.68;;;14.98;;
18021;SDS011;9136;48.822;7.966;2023-06-10T06:42:51;17.77;;;16.77;;
18021;SDS011;9136;48.822;7.966;2023-06-10T06:45:39;16.27;;;15.48;;
18021;SDS011;9136;48.822;7.966;2023-06-10T06:48:26;16.83;;;16.02;;
18021;SDS011;9136;48.822;7.966;2023-06-10T06:51:14;17.05;;;16.23;;
18021;SDS011;9136;48.822;7.966;2023-06-10T06:54:02;17.05;;;16.25;;
18021;SDS011;9136;48.822;7.966;2023-06-10T06:56:51;17.13;;;16.33;;
18021;SDS011;9136;48.822;7.966;2023-06-10T06:59:40;18.10;;;17.02;;
18021;SDS011;9136;48.822;7.966;2023-06-10T07:02:28;16.48;;;15.77;;
18021;SDS011;9136;48.822;7.966;2023-06-10T07:05:18;16.83;;;16.02;;
18021;SDS011;9136;48.822;7.966;2023-06-10T07:08:06;17.63;;;16.73;;
18021;SDS011;9136;48.822;7.966;2023-06-10T07:10:53;17.38;;;16.50;;
18021;SDS011;9136;48.822;7.966;2023-06-10T07:13:41;16.40;;;15.68;;
18021;SDS011;9136;48.822;7.966;2023-06-10T07:16:30;17.02;;;16.20;;
18021;SDS011;9136;48.822;7.966;2023-06-10T07:19:18;16.88;;;16.10;;
18021;SDS011;9136;48.822;7.966;2023-06-10T07:22:06;17.35;;;16.55;;
18021;SDS011;9136;48.822;7.966;2023-06-10T07:24:54;16.98;;;16.17;;
18021;SDS011;9136;48.822;7.966;2023-06-10T07:27:43;16.35;;;15.65;;
18021;SDS011;9136;48.822;7.966;2023-06-10T07:30:31;16.58;;;15.77;;
18021;SDS011;9136;48.822;7.966;2023-06-10T07:33:20;15.63;;;14.93;;
18021;SDS011;9136;48.822;7.966;2023-06-10T07:36:08;17.05;;;16.25;;
18021;SDS011;9136;48.822;7.966;2023-06-10T07:38:56;17.25;;;16.45;;
18021;SDS011;9136;48.822;7.966;2023-06-10T07:41:44;15.85;;;15.00;;
18021;SDS011;9136;48.822;7.966;2023-06-10T07:44:32;14.55;;;13.85;;
18021;SDS011;9136;48.822;7.966;2023-06-10T07:47:19;15.07;;;14.32;;
18021;SDS011;9136;48.822;7.966;2023-06-10T07:50:09;17.00;;;16.10;;
18021;SDS011;9136;48.822;7.966;2023-06-10T07:52:57;15.98;;;15.13;;
18021;SDS011;9136;48.822;7.966;2023-06-10T07:55:45;15.30;;;14.60;;
18021;SDS011;9136;48.822;7.966;2023-06-10T07:58:32;15.50;;;14.60;;
18021;SDS011;9136;48.822;7.966;2023-06-10T08:01:22;14.85;;;14.15;;
18021;SDS011;9136;48.822;7.966;2023-06-10T08:04:10;15.20;;;14.30;;
18021;SDS011;9136;48.822;7.966;2023-06-10T08:07:00;14.27;;;13.57;;
18021;SDS011;9136;48.822;7.966;2023-06-10T08:09:48;16.25;;;15.45;;
18021;SDS011;9136;48.822;7.966;2023-06-10T08:12:36;15.82;;;14.82;;
18021;SDS011;9136;48.822;7.966;2023-06-10T08:15:24;13.25;;;12.57;;
18021;SDS011;9136;48.822;7.966;2023-06-10T08:18:12;15.05;;;14.35;;
18021;SDS011;9136;48.822;7.966;2023-06-10T08:20:59;13.77;;;13.18;;
18021;SDS011;9136;48.822;7.966;2023-06-10T08:23:49;13.00;;;12.40;;
18021;SDS011;9136;48.822;7.966;2023-06-10T08:26:41;14.10;;;13.40;;
18021;SDS011;9136;48.822;7.966;2023-06-10T08:29:28;13.20;;;12.60;;
18021;SDS011;9136;48.822;7.966;2023-06-10T08:32:17;14.38;;;13.68;;
18021;SDS011;9136;48.822;7.966;2023-06-10T08:35:05;13.80;;;13.10;;
18021;SDS011;9136;48.822;7.966;2023-06-10T08:37:53;14.25;;;13.55;;
18021;SDS011;9136;48.822;7.966;2023-06-10T08:40:43;12.30;;;11.68;;
18021;SDS011;9136;48.822;7.966;2023-06-10T08:43:32;13.55;;;12.88;;
18021;SDS011;9136;48.822;7.966;2023-06-10T08:46:22;13.82;;;13.02;;
18021;SDS011;9136;48.822;7.966;2023-06-10T08:49:10;13.00;;;12.38;;
18021;SDS011;9136;48.822;7.966;2023-06-10T08:52:02;12.95;;;12.27;;
18021;SDS011;9136;48.822;7.966;2023-06-10T08:54:54;13.68;;;12.98;;
18021;SDS011;9136;48.822;7.966;2023-06-10T08:57:45;13.77;;;13.00;;
18021;SDS011;9136;48.822;7.966;2023-06-10T09:00:34;14.88;;;14.07;;
18021;SDS011;9136;48.822;7.966;2023-06-10T09:03:21;14.85;;;14.05;;
18021;SDS011;9136;48.822;7.966;2023-06-10T09:06:11;13.48;;;12.82;;
18021;SDS011;9136;48.822;7.966;2023-06-10T09:09:00;13.07;;;12.38;;
18021;SDS011;9136;48.822;7.966;2023-06-10T09:11:48;12.85;;;12.25;;
18021;SDS011;9136;48.822;7.966;2023-06-10T09:14:40;12.35;;;11.65;;
18021;SDS011;9136;48.822;7.966;2023-06-10T09:17:28;12.57;;;12.00;;
18021;SDS011;9136;48.822;7.966;2023-06-10T09:20:16;12.60;;;12.00;;
18021;SDS011;9136;48.822;7.966;2023-06-10T09:23:04;12.73;;;12.05;;
18021;SDS011;9136;48.822;7.966;2023-06-10T09:25:56;12.95;;;12.30;;
18021;SDS011;9136;48.822;7.966;2023-06-10T09:28:45;13.15;;;12.55;;
18021;SDS011;9136;48.822;7.966;2023-06-10T09:31:37;12.18;;;11.57;;
18021;SDS011;9136;48.822;7.966;2023-06-10T09:34:26;12.80;;;12.20;;
18021;SDS011;9136;48.822;7.966;2023-06-10T09:37:19;12.88;;;12.18;;
18021;SDS011;9136;48.822;7.966;2023-06-10T09:40:08;12.73;;;12.13;;
18021;SDS011;9136;48.822;7.966;2023-06-10T09:42:57;13.35;;;12.75;;
18021;SDS011;9136;48.822;7.966;2023-06-10T09:45:49;13.02;;;12.38;;
18021;SDS011;9136;48.822;7.966;2023-06-10T09:48:44;11.73;;;11.18;;
18021;SDS011;9136;48.822;7.966;2023-06-10T09:51:33;12.48;;;11.90;;
18021;SDS011;9136;48.822;7.966;2023-06-10T09:54:21;13.02;;;12.35;;
18021;SDS011;9136;48.822;7.966;2023-06-10T09:57:09;13.85;;;13.10;;
18021;SDS011;9136;48.822;7.966;2023-06-10T09:59:57;13.27;;;12.27;;
18021;SDS011;9136;48.822;7.966;2023-06-10T10:02:46;13.23;;;12.63;;
18021;SDS011;9136;48.822;7.966;2023-06-10T10:05:36;12.45;;;11.85;;
18021;SDS011;9136;48.822;7.966;2023-06-10T10:08:29;13.07;;;12.35;;
18021;SDS011;9136;48.822;7.966;2023-06-10T10:11:18;14.15;;;13.27;;
18021;SDS011;9136;48.822;7.966;2023-06-10T10:14:07;13.65;;;12.88;;
18021;SDS011;9136;48.822;7.966;2023-06-10T10:16:56;14.52;;;13.48;;
18021;SDS011;9136;48.822;7.966;2023-06-10T10:19:46;13.32;;;12.45;;
18021;SDS011;9136;48.822;7.966;2023-06-10T10:22:39;12.65;;;12.05;;
18021;SDS011;9136;48.822;7.966;2023-06-10T10:25:28;12.32;;;11.63;;
18021;SDS011;9136;48.822;7.966;2023-06-10T10:28:21;12.00;;;11.30;;
18021;SDS011;9136;48.822;7.966;2023-06-10T10:31:13;12.57;;;11.88;;
18021;SDS011;9136;48.822;7.966;2023-06-10T10:34:06;12.20;;;11.60;;
18021;SDS011;9136;48.822;7.966;2023-06-10T10:36:56;11.10;;;10.60;;
18021;SDS011;9136;48.822;7.966;2023-06-10T10:39:46;12.07;;;11.48;;
18021;SDS011;9136;48.822;7.966;2023-06-10T10:42:35;12.10;;;11.50;;
18021;SDS011;9136;48.822;7.966;2023-06-10T10:45:24;11.10;;;10.57;;
18021;SDS011;9136;48.822;7.966;2023-06-10T10:48:15;11.38;;;10.88;;
18021;SDS011;9136;48.822;7.966;2023-06-10T10:51:06;12.15;;;11.57;;
18021;SDS011;9136;48.822;7.966;2023-06-10T10:57:11;11.70;;;11.10;;
18021;SDS011;9136;48.822;7.966;2023-06-10T11:00:00;11.45;;;10.95;;
18021;SDS011;9136;48.822;7.966;2023-06-10T11:02:53;11.20;;;10.63;;
18021;SDS011;9136;48.822;7.966;2023-06-10T11:05:45;11.55;;;11.05;;
18021;SDS011;9136;48.822;7.966;2023-06-10T11:08:48;11.95;;;11.35;;
18021;SDS011;9136;48.822;7.966;2023-06-10T11:11:36;10.82;;;10.32;;
18021;SDS011;9136;48.822;7.966;2023-06-10T11:14:38;11.30;;;10.75;;
18021;SDS011;9136;48.822;7.966;2023-06-10T11:20:57;10.25;;;9.75;;
18021;SDS011;9136;48.822;7.966;2023-06-10T11:23:46;10.95;;;10.45;;
18021;SDS011;9136;48.822;7.966;2023-06-10T11:26:36;9.77;;;9.27;;
18021;SDS011;9136;48.822;7.966;2023-06-10T11:29:31;9.40;;;9.00;;
18021;SDS011;9136;48.822;7.966;2023-06-10T11:32:22;10.13;;;9.63;;
18021;SDS011;9136;48.822;7.966;2023-06-10T11:35:11;9.23;;;8.82;;
18021;SDS011;9136;48.822;7.966;2023-06-10T11:38:01;10.02;;;9.52;;
18021;SDS011;9136;48.822;7.966;2023-06-10T11:40:49;9.90;;;9.40;;
18021;SDS011;9136;48.822;7.966;2023-06-10T11:43:37;10.15;;;9.70;;
18021;SDS011;9136;48.822;7.966;2023-06-10T11:46:30;10.88;;;10.38;;
18021;SDS011;9136;48.822;7.966;2023-06-10T11:49:20;10.52;;;10.02;;
18021;SDS011;9136;48.822;7.966;2023-06-10T11:52:07;9.52;;;9.02;;
18021;SDS011;9136;48.822;7.966;2023-06-10T11:54:56;10.10;;;9.60;;
18021;SDS011;9136;48.822;7.966;2023-06-10T11:57:44;9.70;;;9.30;;
18021;SDS011;9136;48.822;7.966;2023-06-10T12:00:32;9.60;;;9.20;;
18021;SDS011;9136;48.822;7.966;2023-06-10T12:03:20;9.95;;;9.25;;
18021;SDS011;9136;48.822;7.966;2023-06-10T12:06:09;9.73;;;9.32;;
18021;SDS011;9136;48.822;7.966;2023-06-10T12:08:57;10.85;;;10.25;;
18021;SDS011;9136;48.822;7.966;2023-06-10T12:11:48;10.02;;;9.52;;
18021;SDS011;9136;48.822;7.966;2023-06-10T12:14:55;10.68;;;9.52;;
18021;SDS011;9136;48.822;7.966;2023-06-10T12:17:44;10.65;;;10.05;;
18021;SDS011;9136;48.822;7.966;2023-06-10T12:20:32;9.93;;;9.43;;
18021;SDS011;9136;48.822;7.966;2023-06-10T12:23:22;10.55;;;9.82;;
18021;SDS011;9136;48.822;7.966;2023-06-10T12:26:09;10.30;;;9.80;;
18021;SDS011;9136;48.822;7.966;2023-06-10T12:28:57;10.18;;;9.68;;
18021;SDS011;9136;48.822;7.966;2023-06-10T12:31:54;10.30;;;9.80;;
18021;SDS011;9136;48.822;7.966;2023-06-10T12:34:45;10.68;;;10.18;;
18021;SDS011;9136;48.822;7.966;2023-06-10T12:37:33;11.23;;;10.68;;
18021;SDS011;9136;48.822;7.966;2023-06-10T12:40:26;10.40;;;9.80;;
18021;SDS011;9136;48.822;7.966;2023-06-10T12:43:18;10.13;;;9.52;;
18021;SDS011;9136;48.822;7.966;2023-06-10T12:46:10;11.73;;;10.00;;
18021;SDS011;9136;48.822;7.966;2023-06-10T12:48:58;9.55;;;9.05;;
18021;SDS011;9136;48.822;7.966;2023-06-10T12:51:46;8.88;;;8.48;;
18021;SDS011;9136;48.822;7.966;2023-06-10T12:54:34;8.80;;;8.40;;
18021;SDS011;9136;48.822;7.966;2023-06-10T12:57:24;10.15;;;9.57;;
18021;SDS011;9136;48.822;7.966;2023-06-10T13:00:12;9.88;;;9.38;;
18021;SDS011;9136;48.822;7.966;2023-06-10T13:03:00;8.43;;;8.02;;
18021;SDS011;9136;48.822;7.966;2023-06-10T13:05:49;9.15;;;8.65;;
18021;SDS011;9136;48.822;7.966;2023-06-10T13:08:36;9.07;;;8.63;;
18021;SDS011;9136;48.822;7.966;2023-06-10T13:11:24;10.10;;;9.35;;
18021;SDS011;9136;48.822;7.966;2023-06-10T13:14:13;8.43;;;8.02;;
18021;SDS011;9136;48.822;7.966;2023-06-10T13:17:01;8.82;;;8.43;;
18021;SDS011;9136;48.822;7.966;2023-06-10T13:19:49;9.25;;;8.75;;
18021;SDS011;9136;48.822;7.966;2023-06-10T13:22:37;8.77;;;8.35;;
18021;SDS011;9136;48.822;7.966;2023-06-10T13:25:25;8.68;;;8.27;;
18021;SDS011;9136;48.822;7.966;2023-06-10T13:28:13;9.27;;;8.77;;
18021;SDS011;9136;48.822;7.966;2023-06-10T13:31:02;9.05;;;8.65;;
18021;SDS011;9136;48.822;7.966;2023-06-10T13:33:50;9.13;;;8.73;;
18021;SDS011;9136;48.822;7.966;2023-06-10T13:36:38;9.45;;;8.70;;
18021;SDS011;9136;48.822;7.966;2023-06-10T13:39:25;8.73;;;8.32;;
18021;SDS011;9136;48.822;7.966;2023-06-10T13:42:13;8.50;;;8.10;;
18021;SDS011;9136;48.822;7.966;2023-06-10T13:45:01;10.02;;;9.52;;
18021;SDS011;9136;48.822;7.966;2023-06-10T13:47:51;14.63;;;9.75;;
18021;SDS011;9136;48.822;7.966;2023-06-10T13:50:39;8.88;;;8.48;;
18021;SDS011;9136;48.822;7.966;2023-06-10T13:53:31;9.45;;;9.05;;
18021;SDS011;9136;48.822;7.966;2023-06-10T13:56:19;8.73;;;8.32;;
18021;SDS011;9136;48.822;7.966;2023-06-10T13:59:06;9.90;;;9.27;;
18021;SDS011;9136;48.822;7.966;2023-06-10T14:01:54;8.50;;;8.10;;
18021;SDS011;9136;48.822;7.966;2023-06-10T14:04:44;8.60;;;8.20;;
18021;SDS011;9136;48.822;7.966;2023-06-10T14:07:33;9.88;;;8.57;;
18021;SDS011;9136;48.822;7.966;2023-06-10T14:10:21;9.38;;;8.93;;
18021;SDS011;9136;48.822;7.966;2023-06-10T14:13:09;9.25;;;8.80;;
18021;SDS011;9136;48.822;7.966;2023-06-10T14:15:56;10.38;;;8.85;;
18021;SDS011;9136;48.822;7.966;2023-06-10T14:18:48;8.48;;;8.00;;
18021;SDS011;9136;48.822;7.966;2023-06-10T14:21:38;8.32;;;7.93;;
18021;SDS011;9136;48.822;7.966;2023-06-10T14:24:26;8.27;;;7.88;;
18021;SDS011;9136;48.822;7.966;2023-06-10T14:27:14;8.27;;;7.45;;
18021;SDS011;9136;48.822;7.966;2023-06-10T14:30:03;9.27;;;8.57;;
18021;SDS011;9136;48.822;7.966;2023-06-10T14:32:51;8.80;;;8.20;;
18021;SDS011;9136;48.822;7.966;2023-06-10T14:35:39;9.25;;;8.85;;
18021;SDS011;9136;48.822;7.966;2023-06-10T14:38:30;9.02;;;8.43;;
18021;SDS011;9136;48.822;7.966;2023-06-10T14:41:18;8.05;;;7.68;;
18021;SDS011;9136;48.822;7.966;2023-06-10T14:44:05;9.07;;;8.68;;
18021;SDS011;9136;48.822;7.966;2023-06-10T14:46:53;9.27;;;8.88;;
18021;SDS011;9136;48.822;7.966;2023-06-10T14:49:41;8.85;;;8.45;;
18021;SDS011;9136;48.822;7.966;2023-06-10T14:52:29;9.60;;;9.10;;
18021;SDS011;9136;48.822;7.966;2023-06-10T14:55:19;8.88;;;8.48;;
18021;SDS011;9136;48.822;7.966;2023-06-10T14:58:08;8.82;;;8.32;;
18021;SDS011;9136;48.822;7.966;2023-06-10T15:00:56;8.75;;;8.35;;
18021;SDS011;9136;48.822;7.966;2023-06-10T15:03:44;9.85;;;8.98;;
18021;SDS011;9136;48.822;7.966;2023-06-10T15:06:32;9.10;;;8.70;;
18021;SDS011;9136;48.822;7.966;2023-06-10T15:09:19;8.60;;;8.20;;
18021;SDS011;9136;48.822;7.966;2023-06-10T15:12:09;9.27;;;8.77;;
18021;SDS011;9136;48.822;7.966;2023-06-10T15:14:57;9.48;;;8.98;;
18021;SDS011;9136;48.822;7.966;2023-06-10T15:17:45;9.05;;;8.65;;
18021;SDS011;9136;48.822;7.966;2023-06-10T15:20:33;8.30;;;7.90;;
18021;SDS011;9136;48.822;7.966;2023-06-10T15:23:20;8.70;;;8.30;;
18021;SDS011;9136;48.822;7.966;2023-06-10T15:26:08;8.15;;;7.75;;
18021;SDS011;9136;48.822;7.966;2023-06-10T15:28:58;7.80;;;7.40;;
18021;SDS011;9136;48.822;7.966;2023-06-10T15:31:49;7.70;;;7.38;;
18021;SDS011;9136;48.822;7.966;2023-06-10T15:34:37;8.50;;;8.05;;
18021;SDS011;9136;48.822;7.966;2023-06-10T15:37:25;8.40;;;8.00;;
18021;SDS011;9136;48.822;7.966;2023-06-10T15:40:13;8.43;;;8.02;;
18021;SDS011;9136;48.822;7.966;2023-06-10T15:43:01;9.40;;;9.00;;
18021;SDS011;9136;48.822;7.966;2023-06-10T15:45:51;11.57;;;8.90;;
18021;SDS011;9136;48.822;7.966;2023-06-10T15:48:39;8.85;;;8.45;;
18021;SDS011;9136;48.822;7.966;2023-06-10T15:51:26;9.15;;;8.75;;
18021;SDS011;9136;48.822;7.966;2023-06-10T15:54:14;8.70;;;8.30;;
18021;SDS011;9136;48.822;7.966;2023-06-10T15:57:02;8.93;;;8.52;;
18021;SDS011;9136;48.822;7.966;2023-06-10T15:59:51;7.97;;;7.60;;
18021;SDS011;9136;48.822;7.966;2023-06-10T16:02:40;9.50;;;9.00;;
18021;SDS011;9136;48.822;7.966;2023-06-10T16:05:28;9.15;;;8.75;;
18021;SDS011;9136;48.822;7.966;2023-06-10T16:08:16;8.90;;;8.18;;
18021;SDS011;9136;48.822;7.966;2023-06-10T16:11:04;8.75;;;8.25;;
18021;SDS011;9136;48.822;7.966;2023-06-10T16:13:51;8.77;;;8.27;;
18021;SDS011;9136;48.822;7.966;2023-06-10T16:16:39;9.30;;;8.90;;
18021;SDS011;9136;48.822;7.966;2023-06-10T16:19:29;8.85;;;8.43;;
18021;SDS011;9136;48.822;7.966;2023-06-10T16:22:17;9.02;;;8.63;;
18021;SDS011;9136;48.822;7.966;2023-06-10T16:25:05;8.82;;;8.43;;
18021;SDS011;9136;48.822;7.966;2023-06-10T16:27:54;8.93;;;8.52;;
18021;SDS011;9136;48.822;7.966;2023-06-10T16:30:43;8.55;;;8.15;;
18021;SDS011;9136;48.822;7.966;2023-06-10T16:33:31;8.52;;;8.13;;
18021;SDS011;9136;48.822;7.966;2023-06-10T16:36:20;9.57;;;8.95;;
18021;SDS011;9136;48.822;7.966;2023-06-10T16:39:08;8.48;;;8.00;;
18021;SDS011;9136;48.822;7.966;2023-06-10T16:41:56;8.45;;;8.05;;
18021;SDS011;9136;48.822;7.966;2023-06-10T16:44:44;9.25;;;8.75;;
18021;SDS011;9136;48.822;7.966;2023-06-10T16:47:31;9.60;;;9.10;;
18021;SDS011;9136;48.822;7.966;2023-06-10T16:50:19;9.40;;;9.00;;
18021;SDS011;9136;48.822;7.966;2023-06-10T16:53:09;9.27;;;8.73;;
18021;SDS011;9136;48.822;7.966;2023-06-10T16:55:56;10.35;;;9.82;;
18021;SDS011;9136;48.822;7.966;2023-06-10T16:58:44;11.02;;;10.50;;